Time;durP1;ratioP1;P1;durP2;ratioP2;P2;SDS_P1;SDS_P2;PMS_P1;PMS_P2;Temp;Humidity;BMP_temperature;BMP_pressure;BME280_temperature;BME280_humidity;BME280_pressure;Samples;Min_cycle;Max_cycle;Signal;HPM_P1;HPM_P2
2022/08/04 00:01:39;;;;;;;0.00;0.00;;;;;;;;;;5071615;28;20365;-61
2022/08/04 00:04:13;;;;;;;0.00;0.00;;;;;;;;;;5071590;28;20413;-60
2022/08/04 00:06:52;;;;;;;0.00;0.00;;;;;;;;;;5081668;28;20035;-60
2022/08/04 00:09:29;;;;;;;0.00;0.00;;;;;;;;;;5091571;28;20012;-61
2022/08/04 00:11:56;;;;;;;0.00;0.00;;;;;;;;;;5091369;28;20115;-61
2022/08/04 00:14:22;;;;;;;0.00;0.00;;;;;;;;;;5090985;28;20011;-61
2022/08/04 00:16:48;;;;;;;0.00;0.00;;;;;;;;;;5091456;28;20024;-61
2022/08/04 00:19:18;;;;;;;0.00;0.00;;;;;;;;;;5076397;28;20027;-60
2022/08/04 00:21:51;;;;;;;0.00;0.00;;;;;;;;;;5070788;28;20526;-60
2022/08/04 00:24:16;;;;;;;0.00;0.00;;;;;;;;;;5070647;28;20024;-60
2022/08/04 00:26:42;;;;;;;0.00;0.00;;;;;;;;;;5070909;28;20027;-60
2022/08/04 00:29:07;;;;;;;0.00;0.00;;;;;;;;;;5069111;28;20071;-60
2022/08/04 00:31:32;;;;;;;0.00;0.00;;;;;;;;;;5070421;28;20031;-60
2022/08/04 00:33:58;;;;;;;0.00;0.00;;;;;;;;;;5070784;28;20028;-60
2022/08/04 00:36:25;;;;;;;0.00;0.00;;;;;;;;;;5070007;28;20032;-60
2022/08/04 00:38:51;;;;;;;0.00;0.00;;;;;;;;;;5070535;28;20107;-60
2022/08/04 00:41:30;;;;;;;0.00;0.00;;;;;;;;;;5070171;28;20158;-60
2022/08/04 00:43:58;;;;;;;0.00;0.00;;;;;;;;;;5078892;28;20410;-60
2022/08/04 00:46:42;;;;;;;0.00;0.00;;;;;;;;;;5072177;28;20024;-60
2022/08/04 00:49:13;;;;;;;0.00;0.00;;;;;;;;;;5090241;28;20512;-60
2022/08/04 00:51:56;;;;;;;0.00;0.00;;;;;;;;;;5089736;28;20153;-60
2022/08/04 00:54:37;;;;;;;0.00;0.00;;;;;;;;;;5069850;28;20028;-60
2022/08/04 00:57:02;;;;;;;0.00;0.00;;;;;;;;;;5069366;28;20025;-61
2022/08/04 00:59:34;;;;;;;1.30;1.30;;;;;;;;;;5069826;28;20028;-61
2022/08/04 01:02:01;;;;;;;0.00;0.00;;;;;;;;;;5069291;28;20382;-61
2022/08/04 01:04:39;;;;;;;0.00;0.00;;;;;;;;;;5069827;28;20024;-61
2022/08/04 01:07:04;;;;;;;0.00;0.00;;;;;;;;;;5084225;28;20527;-61
2022/08/04 01:09:29;;;;;;;0.00;0.00;;;;;;;;;;5081366;28;20044;-61
2022/08/04 01:12:14;;;;;;;0.00;0.00;;;;;;;;;;5069452;28;20086;-61
2022/08/04 01:14:43;;;;;;;0.00;0.00;;;;;;;;;;5070159;28;20346;-61
2022/08/04 01:17:14;;;;;;;0.00;0.00;;;;;;;;;;5079806;28;20018;-61
2022/08/04 01:20:00;;;;;;;0.00;0.00;;;;;;;;;;5086992;28;20031;-60
2022/08/04 01:22:31;;;;;;;0.00;0.00;;;;;;;;;;5089926;28;20032;-60
2022/08/04 01:25:11;;;;;;;0.08;0.08;;;;;;;;;;5090148;28;20028;-60
2022/08/04 01:27:36;;;;;;;0.00;0.00;;;;;;;;;;5070839;28;20102;-60
2022/08/04 01:30:01;;;;;;;0.00;0.00;;;;;;;;;;5069735;28;20083;-60
2022/08/04 01:32:36;;;;;;;0.00;0.00;;;;;;;;;;5069211;28;20265;-60
2022/08/04 01:35:10;;;;;;;0.00;0.00;;;;;;;;;;5069790;28;20032;-61
2022/08/04 01:37:48;;;;;;;0.00;0.00;;;;;;;;;;5069367;28;20447;-60
2022/08/04 01:40:13;;;;;;;0.00;0.00;;;;;;;;;;5069501;28;20020;-61
2022/08/04 01:42:40;;;;;;;0.00;0.00;;;;;;;;;;5067326;28;20591;-61
2022/08/04 01:45:06;;;;;;;0.00;0.00;;;;;;;;;;5069893;28;20058;-61
2022/08/04 01:47:33;;;;;;;0.00;0.00;;;;;;;;;;5068953;28;20020;-61
2022/08/04 01:50:03;;;;;;;0.00;0.00;;;;;;;;;;5069407;28;20087;-61
2022/08/04 01:52:28;;;;;;;;;;;;;;;;;;5069328;28;20028;-61
2022/08/04 01:54:54;;;;;;;0.00;0.00;;;;;;;;;;5067945;28;19915;-61
2022/08/04 01:57:20;;;;;;;0.00;0.00;;;;;;;;;;5068531;28;20032;-60
2022/08/04 01:59:46;;;;;;;0.00;0.00;;;;;;;;;;5068452;28;20428;-60
2022/08/04 02:02:11;;;;;;;2.45;0.93;;;;;;;;;;5069349;28;20028;-61
2022/08/04 02:04:36;;;;;;;0.00;0.00;;;;;;;;;;5068127;28;20441;-61
2022/08/04 02:07:02;;;;;;;0.00;0.00;;;;;;;;;;5068765;28;20267;-61
2022/08/04 02:09:46;;;;;;;0.00;0.00;;;;;;;;;;5068821;28;20431;-61
2022/08/04 02:12:20;;;;;;;0.00;0.00;;;;;;;;;;5069428;28;20020;-61
2022/08/04 02:15:03;;;;;;;0.00;0.00;;;;;;;;;;5073255;28;20470;-61
2022/08/04 02:17:39;;;;;;;0.10;0.10;;;;;;;;;;5069923;28;20086;-61
2022/08/04 02:20:11;;;;;;;0.38;0.38;;;;;;;;;;5092918;28;20024;-61
2022/08/04 02:22:46;;;;;;;0.00;0.00;;;;;;;;;;5093073;28;20081;-61
2022/08/04 02:25:16;;;;;;;0.00;0.00;;;;;;;;;;5075205;28;20055;-60
2022/08/04 02:27:41;;;;;;;;;;;;;;;;;;5072216;28;20480;-61
2022/08/04 02:30:06;;;;;;;0.00;0.00;;;;;;;;;;5073486;28;20392;-61
2022/08/04 02:32:38;;;;;;;0.00;0.00;;;;;;;;;;5072174;28;20033;-61
2022/08/04 02:35:08;;;;;;;0.00;0.00;;;;;;;;;;5073326;28;20028;-61
2022/08/04 02:37:34;;;;;;;0.00;0.00;;;;;;;;;;5072491;28;20021;-61
2022/08/04 02:40:01;;;;;;;0.00;0.00;;;;;;;;;;5072962;28;20020;-62
2022/08/04 02:42:30;;;;;;;0.00;0.00;;;;;;;;;;5072437;28;20043;-61
2022/08/04 02:44:56;;;;;;;0.00;0.00;;;;;;;;;;5076000;28;20047;-61
2022/08/04 02:47:23;;;;;;;0.55;0.55;;;;;;;;;;5071689;28;20036;-61
2022/08/04 02:49:49;;;;;;;0.00;0.00;;;;;;;;;;5072640;28;20746;-60
2022/08/04 02:52:15;;;;;;;0.00;0.00;;;;;;;;;;5071662;28;20411;-61
2022/08/04 02:54:44;;;;;;;0.00;0.00;;;;;;;;;;5075929;28;20108;-60
2022/08/04 02:57:10;;;;;;;0.00;0.00;;;;;;;;;;5071319;28;20439;-60
2022/08/04 02:59:52;;;;;;;0.00;0.00;;;;;;;;;;5077121;28;20362;-61
2022/08/04 03:02:23;;;;;;;0.00;0.00;;;;;;;;;;5092923;28;20018;-60
2022/08/04 03:04:48;;;;;;;0.00;0.00;;;;;;;;;;5092822;28;20103;-60
2022/08/04 03:07:23;;;;;;;0.00;0.00;;;;;;;;;;5092733;28;20548;-60
2022/08/04 03:09:51;;;;;;;0.00;0.00;;;;;;;;;;5092799;28;20266;-60
2022/08/04 03:12:25;;;;;;;0.00;0.00;;;;;;;;;;5071805;28;20392;-60
2022/08/04 03:15:23;;;;;;;0.00;0.00;;;;;;;;;;5072263;28;20052;-61
2022/08/04 03:18:03;;;;;;;0.00;0.00;;;;;;;;;;5038155;28;20048;-61
2022/08/04 03:20:31;;;;;;;0.00;0.00;;;;;;;;;;5077367;28;20123;-60
2022/08/04 03:23:15;;;;;;;0.00;0.00;;;;;;;;;;5073007;28;20021;-61
2022/08/04 03:25:52;;;;;;;0.00;0.00;;;;;;;;;;5068245;28;20036;-60
2022/08/04 03:28:17;;;;;;;0.00;0.00;;;;;;;;;;5072044;28;20032;-60
2022/08/04 03:31:09;;;;;;;0.00;0.00;;;;;;;;;;5071908;28;20354;-61
2022/08/04 03:33:50;;;;;;;0.00;0.00;;;;;;;;;;5071244;28;20024;-61
2022/08/04 03:36:33;;;;;;;0.00;0.00;;;;;;;;;;5071762;28;20024;-61
2022/08/04 03:39:18;;;;;;;0.00;0.00;;;;;;;;;;5071358;28;20062;-61
2022/08/04 03:42:02;;;;;;;0.00;0.00;;;;;;;;;;5034912;28;20035;-61
2022/08/04 03:44:46;;;;;;;0.00;0.00;;;;;;;;;;5071452;28;20070;-61
2022/08/04 03:47:30;;;;;;;0.00;0.00;;;;;;;;;;5071549;28;20020;-60
2022/08/04 03:49:58;;;;;;;0.00;0.00;;;;;;;;;;5068279;28;20040;-60
2022/08/04 03:55:27;;;;;;;0.00;0.00;;;;;;;;;;5069454;28;20043;-61
2022/08/04 03:58:11;;;;;;;0.00;0.00;;;;;;;;;;5071328;28;20024;-61
2022/08/04 04:00:46;;;;;;;0.00;0.00;;;;;;;;;;5070794;28;20462;-61
2022/08/04 04:03:26;;;;;;;0.00;0.00;;;;;;;;;;5071605;28;20457;-60
2022/08/04 04:06:02;;;;;;;0.00;0.00;;;;;;;;;;5071168;28;20020;-61
2022/08/04 04:08:33;;;;;;;0.00;0.00;;;;;;;;;;5067327;28;20051;-61
2022/08/04 04:11:11;;;;;;;0.00;0.00;;;;;;;;;;5091432;28;20020;-61
2022/08/04 04:13:54;;;;;;;0.30;0.30;;;;;;;;;;5091071;28;20491;-61
2022/08/04 04:16:38;;;;;;;0.00;0.00;;;;;;;;;;5087029;28;20071;-61
2022/08/04 04:19:26;;;;;;;0.03;0.03;;;;;;;;;;5084694;28;20031;-61
2022/08/04 04:21:51;;;;;;;0.00;0.00;;;;;;;;;;5070869;28;20040;-61
2022/08/04 04:24:32;;;;;;;0.73;0.73;;;;;;;;;;5069927;28;20059;-61
2022/08/04 04:27:20;;;;;;;0.00;0.00;;;;;;;;;;5070956;28;20255;-61
2022/08/04 04:30:04;;;;;;;0.10;0.10;;;;;;;;;;5070623;28;20047;-61
2022/08/04 04:32:34;;;;;;;0.73;0.73;;;;;;;;;;5081300;28;20114;-61
2022/08/04 04:35:18;;;;;;;0.00;0.00;;;;;;;;;;5082977;28;20130;-62
2022/08/04 04:37:49;;;;;;;0.00;0.00;;;;;;;;;;5081850;28;20039;-61
2022/08/04 04:40:26;;;;;;;0.00;0.00;;;;;;;;;;5085658;28;20111;-61
2022/08/04 04:43:10;;;;;;;0.00;0.00;;;;;;;;;;5088109;28;20460;-62
2022/08/04 04:45:54;;;;;;;0.00;0.00;;;;;;;;;;5089714;28;20016;-63
2022/08/04 04:48:28;;;;;;;0.00;0.00;;;;;;;;;;5079419;28;20831;-63
2022/08/04 04:50:57;;;;;;;0.00;0.00;;;;;;;;;;5068866;28;20020;-63
2022/08/04 04:53:34;;;;;;;0.00;0.00;;;;;;;;;;5070271;28;20023;-63
2022/08/04 04:56:04;;;;;;;0.00;0.00;;;;;;;;;;5067920;28;20044;-63
2022/08/04 04:58:31;;;;;;;0.00;0.00;;;;;;;;;;5049935;28;20162;-63
2022/08/04 05:01:15;;;;;;;0.00;0.00;;;;;;;;;;5069805;28;20017;-62
2022/08/04 05:03:40;;;;;;;0.00;0.00;;;;;;;;;;5069367;28;20024;-63
2022/08/04 05:06:05;;;;;;;0.00;0.00;;;;;;;;;;5069150;28;20024;-64
2022/08/04 05:08:37;;;;;;;0.00;0.00;;;;;;;;;;5069323;28;20047;-64
2022/08/04 05:11:08;;;;;;;0.00;0.00;;;;;;;;;;5070399;28;20262;-64
2022/08/04 05:13:35;;;;;;;0.00;0.00;;;;;;;;;;5069766;28;20021;-64
2022/08/04 05:16:21;;;;;;;0.00;0.00;;;;;;;;;;5068823;28;20024;-64
2022/08/04 05:18:51;;;;;;;0.00;0.00;;;;;;;;;;5069592;28;20032;-64
2022/08/04 05:21:34;;;;;;;0.00;0.00;;;;;;;;;;5069580;28;20422;-64
2022/08/04 05:24:03;;;;;;;0.00;0.00;;;;;;;;;;5090046;28;20069;-64
2022/08/04 05:26:30;;;;;;;0.00;0.00;;;;;;;;;;5089328;28;20020;-64
2022/08/04 05:28:57;;;;;;;0.00;0.00;;;;;;;;;;5089817;28;20028;-63
2022/08/04 05:31:24;;;;;;;0.00;0.00;;;;;;;;;;5089701;28;20020;-64
2022/08/04 05:34:15;;;;;;;0.00;0.00;;;;;;;;;;5089337;28;20043;-63
2022/08/04 05:36:52;;;;;;;0.32;0.32;;;;;;;;;;5075050;28;20044;-64
2022/08/04 05:39:20;;;;;;;0.00;0.00;;;;;;;;;;5081964;28;20347;-64
2022/08/04 05:41:46;;;;;;;0.10;0.10;;;;;;;;;;5068666;28;20032;-64
2022/08/04 05:44:12;;;;;;;0.43;0.43;;;;;;;;;;5069280;28;20359;-64
2022/08/04 05:46:37;;;;;;;0.20;0.20;;;;;;;;;;5070940;28;20031;-64
2022/08/04 05:49:04;;;;;;;0.00;0.00;;;;;;;;;;5069304;28;20126;-64
2022/08/04 05:51:30;;;;;;;0.00;0.00;;;;;;;;;;5067250;28;20690;-64
2022/08/04 05:53:56;;;;;;;0.00;0.00;;;;;;;;;;5075243;28;20073;-64
2022/08/04 05:56:22;;;;;;;0.00;0.00;;;;;;;;;;5066892;28;20048;-64
2022/08/04 05:58:48;;;;;;;0.00;0.00;;;;;;;;;;5068556;28;20082;-65
2022/08/04 06:01:15;;;;;;;0.00;0.00;;;;;;;;;;5069257;28;20024;-63
2022/08/04 06:03:42;;;;;;;0.00;0.00;;;;;;;;;;5066403;28;20028;-64
2022/08/04 06:06:08;;;;;;;0.00;0.00;;;;;;;;;;5048766;28;20454;-65
2022/08/04 06:08:34;;;;;;;0.00;0.00;;;;;;;;;;5066403;28;20035;-65
2022/08/04 06:11:02;;;;;;;0.00;0.00;;;;;;;;;;5069121;28;20021;-64
2022/08/04 06:13:28;;;;;;;0.00;0.00;;;;;;;;;;5068370;28;20614;-63
2022/08/04 06:15:55;;;;;;;0.00;0.00;;;;;;;;;;5068016;28;20454;-63
2022/08/04 06:18:21;;;;;;;0.00;0.00;;;;;;;;;;5067432;28;20033;-64
2022/08/04 06:20:47;;;;;;;0.00;0.00;;;;;;;;;;5068365;28;20135;-64
2022/08/04 06:23:14;;;;;;;0.00;0.00;;;;;;;;;;5066565;28;20035;-64
2022/08/04 06:25:47;;;;;;;0.00;0.00;;;;;;;;;;5085575;28;20054;-64
2022/08/04 06:28:13;;;;;;;0.00;0.00;;;;;;;;;;5080296;28;20035;-62
2022/08/04 06:30:39;;;;;;;0.30;0.30;;;;;;;;;;5068254;28;20016;-61
2022/08/04 06:33:22;;;;;;;0.00;0.00;;;;;;;;;;5064388;28;20025;-61
2022/08/04 06:35:48;;;;;;;0.00;0.00;;;;;;;;;;5066172;28;20055;-61
2022/08/04 06:38:14;;;;;;;0.00;0.00;;;;;;;;;;5064572;28;20028;-61
2022/08/04 06:40:40;;;;;;;0.00;0.00;;;;;;;;;;5072202;28;20024;-61
2022/08/04 06:43:05;;;;;;;0.00;0.00;;;;;;;;;;5065500;28;20024;-61
2022/08/04 06:45:33;;;;;;;0.00;0.00;;;;;;;;;;5063450;28;20024;-60
2022/08/04 06:47:58;;;;;;;0.00;0.00;;;;;;;;;;5068205;28;20474;-60
2022/08/04 06:50:24;;;;;;;0.00;0.00;;;;;;;;;;5068896;28;20047;-59
2022/08/04 06:52:49;;;;;;;0.00;0.00;;;;;;;;;;5065301;28;20047;-60
2022/08/04 06:55:14;;;;;;;0.00;0.00;;;;;;;;;;5068539;28;20062;-61
2022/08/04 06:57:40;;;;;;;0.00;0.00;;;;;;;;;;5067795;28;20020;-61
2022/08/04 07:00:10;;;;;;;0.00;0.00;;;;;;;;;;5071004;28;20024;-61
2022/08/04 07:02:38;;;;;;;0.00;0.00;;;;;;;;;;5080858;28;20021;-61
2022/08/04 07:05:05;;;;;;;0.00;0.00;;;;;;;;;;5087505;28;20027;-61
2022/08/04 07:07:30;;;;;;;0.00;0.00;;;;;;;;;;5071031;28;20107;-60
2022/08/04 07:09:55;;;;;;;0.63;0.63;;;;;;;;;;5083441;28;20623;-61
2022/08/04 07:12:23;;;;;;;0.00;0.00;;;;;;;;;;5071011;28;20807;-60
2022/08/04 07:14:48;;;;;;;0.00;0.00;;;;;;;;;;5071361;28;20789;-60
2022/08/04 07:17:15;;;;;;;14.50;13.40;;;;;;;;;;5069314;28;20474;-62
2022/08/04 07:19:43;;;;;;;0.00;0.00;;;;;;;;;;5071344;28;20023;-61
2022/08/04 07:22:08;;;;;;;0.00;0.00;;;;;;;;;;5063067;28;20036;-61
2022/08/04 07:24:35;;;;;;;0.00;0.00;;;;;;;;;;5087241;28;20020;-62
2022/08/04 07:27:00;;;;;;;0.80;0.80;;;;;;;;;;5074908;28;20223;-64
2022/08/04 07:29:26;;;;;;;0.00;0.00;;;;;;;;;;5071980;28;20130;-64
2022/08/04 07:31:52;;;;;;;0.00;0.00;;;;;;;;;;5071811;28;20013;-63
2022/08/04 07:34:18;;;;;;;0.00;0.00;;;;;;;;;;5072127;28;20482;-63
2022/08/04 07:36:44;;;;;;;0.00;0.00;;;;;;;;;;5083152;28;20044;-62
2022/08/04 07:39:09;;;;;;;0.00;0.00;;;;;;;;;;5071324;28;20503;-61
2022/08/04 07:41:35;;;;;;;0.00;0.00;;;;;;;;;;5069574;28;20153;-61
2022/08/04 07:44:00;;;;;;;0.00;0.00;;;;;;;;;;5065709;28;20070;-61
2022/08/04 07:46:25;;;;;;;0.00;0.00;;;;;;;;;;5077997;28;21434;-62
2022/08/04 07:48:51;;;;;;;0.00;0.00;;;;;;;;;;5069559;28;20040;-62
2022/08/04 07:51:17;;;;;;;0.00;0.00;;;;;;;;;;5075755;28;20028;-61
2022/08/04 07:53:43;;;;;;;0.00;0.00;;;;;;;;;;5086780;28;20020;-61
2022/08/04 07:56:08;;;;;;;0.00;0.00;;;;;;;;;;5071509;28;20036;-62
2022/08/04 07:58:34;;;;;;;2.28;2.10;;;;;;;;;;5070768;28;20082;-60
2022/08/04 08:00:59;;;;;;;0.00;0.00;;;;;;;;;;5070336;28;20074;-66
2022/08/04 08:03:25;;;;;;;0.38;0.38;;;;;;;;;;5069081;28;20297;-62
2022/08/04 08:05:50;;;;;;;0.00;0.00;;;;;;;;;;5073365;28;20046;-65
2022/08/04 08:08:16;;;;;;;0.03;0.00;;;;;;;;;;5074808;28;20031;-63
2022/08/04 08:10:44;;;;;;;0.00;0.00;;;;;;;;;;5071278;28;20075;-63
2022/08/04 08:13:10;;;;;;;0.13;0.13;;;;;;;;;;5081260;28;20268;-62
2022/08/04 08:15:35;;;;;;;0.00;0.00;;;;;;;;;;5079851;28;20020;-61
2022/08/04 08:18:00;;;;;;;0.00;0.00;;;;;;;;;;5076491;28;20039;-61
2022/08/04 08:20:26;;;;;;;0.93;0.40;;;;;;;;;;5079156;28;20024;-62
2022/08/04 08:22:51;;;;;;;0.00;0.00;;;;;;;;;;5080715;28;20085;-62
2022/08/04 08:25:17;;;;;;;0.00;0.00;;;;;;;;;;5070377;28;20016;-63
2022/08/04 08:27:42;;;;;;;0.00;0.00;;;;;;;;;;5074080;28;20313;-64
2022/08/04 08:30:08;;;;;;;0.00;0.00;;;;;;;;;;5075173;28;20047;-63
2022/08/04 08:32:34;;;;;;;0.00;0.00;;;;;;;;;;5076526;28;20070;-64
2022/08/04 08:34:59;;;;;;;0.00;0.00;;;;;;;;;;5072118;28;20055;-61
2022/08/04 08:37:30;;;;;;;0.00;0.00;;;;;;;;;;5066965;28;20055;-64
2022/08/04 08:40:14;;;;;;;0.00;0.00;;;;;;;;;;5059884;28;20033;-64
2022/08/04 08:42:39;;;;;;;2.97;2.72;;;;;;;;;;5064138;28;20024;-64
2022/08/04 08:45:10;;;;;;;0.00;0.00;;;;;;;;;;5071316;28;20016;-63
2022/08/04 08:47:54;;;;;;;0.00;0.00;;;;;;;;;;5066857;28;20063;-67
2022/08/04 08:50:31;;;;;;;2.83;1.35;;;;;;;;;;5045133;28;20064;-68
2022/08/04 08:52:56;;;;;;;1.53;1.50;;;;;;;;;;5047331;28;20032;-67
2022/08/04 08:55:31;;;;;;;0.00;0.00;;;;;;;;;;5044834;28;20017;-65
2022/08/04 08:57:56;;;;;;;0.00;0.00;;;;;;;;;;5060839;28;20504;-63
2022/08/04 09:00:25;;;;;;;0.00;0.00;;;;;;;;;;5057565;28;20013;-64
2022/08/04 09:02:53;;;;;;;0.10;0.10;;;;;;;;;;5066281;28;20381;-65
2022/08/04 09:05:37;;;;;;;0.00;0.00;;;;;;;;;;5069011;28;20036;-63
2022/08/04 09:08:21;;;;;;;0.13;0.13;;;;;;;;;;5055811;28;20028;-64
2022/08/04 09:10:52;;;;;;;0.00;0.00;;;;;;;;;;5051296;28;20066;-64
2022/08/04 09:13:23;;;;;;;0.30;0.30;;;;;;;;;;5057611;28;20073;-64
2022/08/04 09:15:53;;;;;;;0.70;0.70;;;;;;;;;;5069157;28;20024;-63
2022/08/04 09:18:21;;;;;;;0.00;0.00;;;;;;;;;;5067803;28;20614;-64
2022/08/04 09:20:48;;;;;;;0.03;0.03;;;;;;;;;;5057576;28;20013;-63
2022/08/04 09:23:27;;;;;;;0.10;0.10;;;;;;;;;;5048572;28;20017;-63
2022/08/04 09:25:58;;;;;;;0.00;0.00;;;;;;;;;;5041429;28;20021;-63
2022/08/04 09:28:25;;;;;;;0.00;0.00;;;;;;;;;;5068311;28;20588;-64
2022/08/04 09:30:50;;;;;;;0.00;0.00;;;;;;;;;;5050555;28;20052;-63
2022/08/04 09:33:18;;;;;;;6.33;6.00;;;;;;;;;;5069237;28;20055;-63
2022/08/04 09:35:51;;;;;;;0.00;0.00;;;;;;;;;;5059988;28;20043;-63
2022/08/04 09:38:20;;;;;;;0.00;0.00;;;;;;;;;;5052081;28;20112;-63
2022/08/04 09:40:45;;;;;;;;;;;;;;;;;;5049222;28;20025;-63
2022/08/04 09:43:37;;;;;;;0.05;0.05;;;;;;;;;;5064196;28;19969;-63
2022/08/04 09:46:12;;;;;;;0.10;0.10;;;;;;;;;;5030622;28;20032;-63
2022/08/04 09:48:40;;;;;;;0.00;0.00;;;;;;;;;;5068339;28;20052;-63
2022/08/04 09:51:23;;;;;;;0.00;0.00;;;;;;;;;;5069176;28;20024;-63
2022/08/04 09:54:00;;;;;;;0.65;0.55;;;;;;;;;;5048541;28;20032;-63
2022/08/04 09:56:37;;;;;;;0.57;0.28;;;;;;;;;;5081812;28;20028;-64
2022/08/04 09:59:09;;;;;;;0.35;0.35;;;;;;;;;;5089232;28;20160;-63
2022/08/04 10:01:35;;;;;;;0.00;0.00;;;;;;;;;;5089207;28;20071;-63
2022/08/04 10:04:02;;;;;;;0.00;0.00;;;;;;;;;;5089247;28;20433;-63
2022/08/04 10:06:38;;;;;;;0.00;0.00;;;;;;;;;;5068499;28;20025;-63
2022/08/04 10:09:19;;;;;;;0.00;0.00;;;;;;;;;;5069431;28;20021;-63
2022/08/04 10:11:45;;;;;;;0.00;0.00;;;;;;;;;;5050555;28;20024;-63
2022/08/04 10:14:19;;;;;;;0.07;0.07;;;;;;;;;;5069029;28;20012;-63
2022/08/04 10:17:02;;;;;;;0.00;0.00;;;;;;;;;;5068896;28;20697;-63
2022/08/04 10:19:31;;;;;;;0.22;0.22;;;;;;;;;;5068857;28;20473;-63
2022/08/04 10:22:06;;;;;;;0.00;0.00;;;;;;;;;;5068227;28;20035;-63
2022/08/04 10:24:51;;;;;;;0.00;0.00;;;;;;;;;;5068893;28;20024;-62
2022/08/04 10:27:35;;;;;;;0.00;0.00;;;;;;;;;;5066755;28;20020;-63
2022/08/04 10:30:11;;;;;;;0.00;0.00;;;;;;;;;;5072941;28;20020;-61
2022/08/04 10:33:03;;;;;;;0.00;0.00;;;;;;;;;;5070241;28;20107;-62
2022/08/04 10:35:33;;;;;;;0.00;0.00;;;;;;;;;;5067277;28;20048;-62
2022/08/04 10:38:18;;;;;;;0.00;0.00;;;;;;;;;;5071674;28;20158;-62
2022/08/04 10:41:09;;;;;;;0.00;0.00;;;;;;;;;;5071417;28;20028;-62
2022/08/04 10:43:35;;;;;;;0.25;0.22;;;;;;;;;;5068094;28;20028;-62
2022/08/04 10:46:11;;;;;;;0.00;0.00;;;;;;;;;;5071765;28;20518;-62
2022/08/04 10:48:43;;;;;;;0.00;0.00;;;;;;;;;;5071746;28;20798;-62
2022/08/04 10:51:11;;;;;;;0.00;0.00;;;;;;;;;;5070488;28;20191;-62
2022/08/04 10:53:37;;;;;;;0.10;0.10;;;;;;;;;;5071983;28;20073;-62
2022/08/04 10:56:28;;;;;;;0.20;0.20;;;;;;;;;;5071640;28;20028;-62
2022/08/04 10:58:57;;;;;;;0.00;0.00;;;;;;;;;;5063612;28;20728;-62
2022/08/04 11:01:24;;;;;;;0.00;0.00;;;;;;;;;;5071974;28;20047;-63
2022/08/04 11:03:59;;;;;;;0.00;0.00;;;;;;;;;;5070425;28;20021;-63
2022/08/04 11:06:25;;;;;;;0.00;0.00;;;;;;;;;;5070581;28;20063;-63
2022/08/04 11:08:52;;;;;;;0.00;0.00;;;;;;;;;;5071186;28;20020;-62
2022/08/04 11:11:21;;;;;;;0.65;0.65;;;;;;;;;;5071800;28;20048;-62
2022/08/04 11:13:52;;;;;;;0.00;0.00;;;;;;;;;;5071356;28;20020;-62
2022/08/04 11:16:23;;;;;;;0.00;0.00;;;;;;;;;;5071464;28;20151;-62
2022/08/04 11:18:58;;;;;;;0.20;0.20;;;;;;;;;;5071038;28;20073;-62
2022/08/04 11:21:33;;;;;;;0.00;0.00;;;;;;;;;;5071037;28;20025;-62
2022/08/04 11:24:01;;;;;;;0.00;0.00;;;;;;;;;;5071033;28;20044;-63
2022/08/04 11:27:01;;;;;;;0.00;0.00;;;;;;;;;;5071112;28;20023;-61
2022/08/04 11:29:50;;;;;;;0.00;0.00;;;;;;;;;;5009394;28;20525;-62
2022/08/04 11:32:25;;;;;;;0.00;0.00;;;;;;;;;;5070750;28;20063;-62
2022/08/04 11:34:56;;;;;;;0.00;0.00;;;;;;;;;;5070820;28;20044;-62
2022/08/04 11:37:21;;;;;;;0.00;0.00;;;;;;;;;;5076175;28;20110;-63
2022/08/04 11:40:05;;;;;;;0.00;0.00;;;;;;;;;;5071640;28;20774;-63
2022/08/04 11:42:36;;;;;;;0.00;0.00;;;;;;;;;;5071421;28;20308;-63
2022/08/04 11:45:06;;;;;;;0.00;0.00;;;;;;;;;;5078873;28;20420;-63
2022/08/04 11:47:40;;;;;;;0.00;0.00;;;;;;;;;;5090259;28;20469;-63
2022/08/04 11:50:05;;;;;;;0.00;0.00;;;;;;;;;;5079935;28;20076;-63
2022/08/04 11:52:32;;;;;;;0.30;0.30;;;;;;;;;;5069706;28;20504;-64
2022/08/04 11:54:58;;;;;;;0.25;0.25;;;;;;;;;;5069782;28;20646;-62
2022/08/04 11:57:24;;;;;;;0.00;0.00;;;;;;;;;;5070905;28;20016;-62
2022/08/04 11:59:50;;;;;;;0.10;0.05;;;;;;;;;;5069742;28;20032;-62
2022/08/04 12:02:15;;;;;;;0.00;0.00;;;;;;;;;;5070646;28;20021;-64
2022/08/04 12:04:50;;;;;;;0.20;0.10;;;;;;;;;;5070323;28;20377;-63
2022/08/04 12:07:33;;;;;;;0.00;0.00;;;;;;;;;;5070687;28;20269;-66
2022/08/04 12:10:01;;;;;;;0.00;0.00;;;;;;;;;;5072933;28;20017;-61
2022/08/04 12:12:29;;;;;;;0.00;0.00;;;;;;;;;;5073657;28;20028;-61
2022/08/04 12:15:27;;;;;;;0.00;0.00;;;;;;;;;;5069373;28;20527;-62
2022/08/04 12:18:01;;;;;;;0.00;0.00;;;;;;;;;;5036444;28;20473;-64
2022/08/04 12:20:27;;;;;;;1.02;0.98;;;;;;;;;;5073173;28;20036;-64
2022/08/04 12:22:54;;;;;;;0.00;0.00;;;;;;;;;;5070351;28;20017;-63
2022/08/04 12:25:30;;;;;;;0.00;0.00;;;;;;;;;;5070460;28;20115;-63
2022/08/04 12:28:01;;;;;;;0.00;0.00;;;;;;;;;;5070121;28;20036;-63
2022/08/04 12:30:29;;;;;;;0.00;0.00;;;;;;;;;;5069519;28;20078;-63
2022/08/04 12:33:11;;;;;;;0.00;0.00;;;;;;;;;;5077537;28;20374;-62
2022/08/04 12:35:44;;;;;;;0.00;0.00;;;;;;;;;;5069890;28;20032;-63
2022/08/04 12:38:11;;;;;;;0.00;0.00;;;;;;;;;;5069562;28;20028;-62
2022/08/04 12:40:47;;;;;;;0.00;0.00;;;;;;;;;;5089212;28;20103;-64
2022/08/04 12:43:22;;;;;;;0.00;0.00;;;;;;;;;;5090357;28;20008;-64
2022/08/04 12:45:55;;;;;;;0.00;0.00;;;;;;;;;;5086607;28;20031;-63
2022/08/04 12:48:22;;;;;;;0.00;0.00;;;;;;;;;;5084200;28;20044;-62
2022/08/04 12:50:48;;;;;;;0.00;0.00;;;;;;;;;;5079706;28;20043;-62
2022/08/04 12:53:14;;;;;;;0.00;0.00;;;;;;;;;;5084116;28;20020;-62
2022/08/04 12:55:43;;;;;;;0.00;0.00;;;;;;;;;;5089689;28;20134;-63
2022/08/04 12:58:14;;;;;;;0.00;0.00;;;;;;;;;;5069722;28;20028;-62
2022/08/04 13:00:40;;;;;;;0.00;0.00;;;;;;;;;;5071682;28;20469;-63
2022/08/04 13:03:07;;;;;;;0.25;0.25;;;;;;;;;;5058216;28;20099;-63
2022/08/04 13:05:33;;;;;;;0.00;0.00;;;;;;;;;;5084547;28;20024;-64
2022/08/04 13:07:59;;;;;;;0.00;0.00;;;;;;;;;;5076573;28;20070;-64
2022/08/04 13:10:25;;;;;;;0.00;0.00;;;;;;;;;;5090120;28;20028;-64
2022/08/04 13:12:53;;;;;;;12.52;11.52;;;;;;;;;;5076884;28;20115;-63
2022/08/04 13:15:23;;;;;;;0.00;0.00;;;;;;;;;;5051659;28;20716;-64
2022/08/04 13:17:50;;;;;;;0.20;0.20;;;;;;;;;;5066733;28;20033;-63
2022/08/04 13:20:16;;;;;;;0.00;0.00;;;;;;;;;;5071007;28;20036;-63
2022/08/04 13:22:41;;;;;;;0.00;0.00;;;;;;;;;;5067207;28;20100;-64
2022/08/04 13:25:06;;;;;;;0.00;0.00;;;;;;;;;;5066469;28;20128;-64
2022/08/04 13:27:32;;;;;;;0.00;0.00;;;;;;;;;;5066007;28;20031;-64
2022/08/04 13:29:58;;;;;;;0.00;0.00;;;;;;;;;;5064623;28;20028;-64
2022/08/04 13:32:24;;;;;;;0.00;0.00;;;;;;;;;;5064052;28;20067;-64
2022/08/04 13:34:52;;;;;;;0.00;0.00;;;;;;;;;;5071897;28;20071;-64
2022/08/04 13:37:19;;;;;;;0.00;0.00;;;;;;;;;;5071460;28;20103;-63
2022/08/04 13:39:48;;;;;;;0.00;0.00;;;;;;;;;;5071197;28;20032;-61
2022/08/04 13:42:14;;;;;;;0.00;0.00;;;;;;;;;;5061047;28;20071;-61
2022/08/04 13:44:42;;;;;;;0.20;0.20;;;;;;;;;;5084143;28;20035;-63
2022/08/04 13:47:08;;;;;;;0.20;0.20;;;;;;;;;;5073747;28;20074;-63
2022/08/04 13:49:34;;;;;;;0.00;0.00;;;;;;;;;;5079963;28;20048;-62
2022/08/04 13:52:01;;;;;;;0.00;0.00;;;;;;;;;;5082948;28;20096;-63
2022/08/04 13:54:34;;;;;;;0.00;0.00;;;;;;;;;;5083401;28;20031;-62
2022/08/04 13:57:01;;;;;;;0.00;0.00;;;;;;;;;;5084095;28;20369;-61
2022/08/04 13:59:27;;;;;;;0.00;0.00;;;;;;;;;;5079973;28;20111;-61
2022/08/04 14:02:00;;;;;;;0.25;0.25;;;;;;;;;;5080889;28;20050;-62
2022/08/04 14:04:26;;;;;;;0.00;0.00;;;;;;;;;;5068403;28;20039;-62
2022/08/04 14:06:58;;;;;;;0.00;0.00;;;;;;;;;;5078572;28;20068;-61
2022/08/04 14:09:25;;;;;;;0.75;0.55;;;;;;;;;;5078628;28;20020;-63
2022/08/04 14:11:52;;;;;;;0.00;0.00;;;;;;;;;;5050524;28;20040;-61
2022/08/04 14:14:17;;;;;;;0.00;0.00;;;;;;;;;;5068420;28;20087;-62
2022/08/04 14:16:54;;;;;;;0.00;0.00;;;;;;;;;;5065704;28;20082;-61
2022/08/04 14:19:19;;;;;;;0.00;0.00;;;;;;;;;;5067206;28;20024;-62
2022/08/04 14:21:45;;;;;;;0.00;0.00;;;;;;;;;;5070844;28;20374;-63
2022/08/04 14:24:10;;;;;;;0.00;0.00;;;;;;;;;;5078022;28;20025;-62
2022/08/04 14:26:35;;;;;;;0.00;0.00;;;;;;;;;;5065386;28;20024;-62
2022/08/04 14:29:07;;;;;;;0.00;0.00;;;;;;;;;;5071598;28;20343;-61
2022/08/04 14:31:32;;;;;;;0.00;0.00;;;;;;;;;;5073917;28;20016;-62
2022/08/04 14:33:57;;;;;;;0.00;0.00;;;;;;;;;;5068102;28;20043;-62
2022/08/04 14:36:23;;;;;;;0.00;0.00;;;;;;;;;;5064953;28;20276;-61
2022/08/04 14:38:57;;;;;;;0.00;0.00;;;;;;;;;;5074428;28;20274;-62
2022/08/04 14:41:24;;;;;;;0.00;0.00;;;;;;;;;;5061115;28;20024;-61
2022/08/04 14:43:49;;;;;;;0.00;0.00;;;;;;;;;;5070546;28;20020;-62
2022/08/04 14:46:14;;;;;;;0.00;0.00;;;;;;;;;;5063265;28;20017;-61
2022/08/04 14:48:58;;;;;;;0.00;0.00;;;;;;;;;;5069977;28;20064;-63
2022/08/04 14:51:23;;;;;;;0.00;0.00;;;;;;;;;;5062780;28;20025;-61
2022/08/04 14:53:49;;;;;;;0.10;0.10;;;;;;;;;;5067022;28;20035;-61
2022/08/04 14:56:14;;;;;;;0.00;0.00;;;;;;;;;;5075512;28;20271;-62
2022/08/04 14:58:39;;;;;;;0.00;0.00;;;;;;;;;;5076810;28;20417;-62
2022/08/04 15:01:08;;;;;;;0.00;0.00;;;;;;;;;;5070143;28;20078;-61
2022/08/04 15:03:37;;;;;;;0.00;0.00;;;;;;;;;;5081411;28;20013;-61
2022/08/04 15:06:02;;;;;;;0.00;0.00;;;;;;;;;;5079829;28;20020;-61
2022/08/04 15:08:28;;;;;;;0.00;0.00;;;;;;;;;;5078752;28;20131;-61